Time;durP1;ratioP1;P1;durP2;ratioP2;P2;SDS_P1;SDS_P2;PMS_P1;PMS_P2;Temp;Humidity;BMP_temperature;BMP_pressure;BME280_temperature;BME280_humidity;BME280_pressure;Samples;Min_cycle;Max_cycle;Signal;HPM_P1;HPM_P2
2023/10/04 00:01:16;;;;;;;15.90;9.80;;;16.40;95.90;;;;;;5066352;28;20059;-81
2023/10/04 00:03:46;;;;;;;17.17;8.88;;;16.50;95.70;;;;;;5069569;28;20043;-82
2023/10/04 00:06:13;;;;;;;17.75;9.45;;;16.40;95.80;;;;;;5066159;28;20045;-82
2023/10/04 00:08:41;;;;;;;15.27;9.70;;;16.40;95.80;;;;;;5069527;28;20135;-83
2023/10/04 00:11:14;;;;;;;17.05;9.88;;;16.40;95.60;;;;;;5086135;28;20373;-82
2023/10/04 00:13:46;;;;;;;19.25;9.27;;;16.30;95.80;;;;;;5072724;28;20047;-82
2023/10/04 00:16:13;;;;;;;19.33;9.18;;;16.20;96.00;;;;;;5090134;28;20047;-83
2023/10/04 00:18:40;;;;;;;16.73;9.32;;;16.30;96.10;;;;;;5080281;28;20051;-83
2023/10/04 00:21:10;;;;;;;15.07;9.43;;;16.30;96.00;;;;;;5089248;28;20055;-82
2023/10/04 00:23:47;;;;;;;17.92;9.48;;;16.40;96.00;;;;;;5052614;28;20135;-78
2023/10/04 00:26:18;;;;;;;19.37;10.93;;;16.40;95.80;;;;;;5045420;28;20048;-79
2023/10/04 00:28:50;;;;;;;18.92;9.48;;;16.40;95.70;;;;;;5057193;28;20156;-78
2023/10/04 00:31:17;;;;;;;17.02;9.65;;;16.40;95.70;;;;;;5055464;28;20407;-79
2023/10/04 00:33:52;;;;;;;19.02;9.20;;;16.10;96.00;;;;;;5054309;28;20544;-79
2023/10/04 00:36:21;;;;;;;17.80;8.93;;;15.90;96.50;;;;;;5056318;28;20040;-78
2023/10/04 00:38:49;;;;;;;17.10;9.65;;;16.00;96.60;;;;;;5050716;28;20046;-79
2023/10/04 00:41:19;;;;;;;14.90;9.48;;;16.10;96.40;;;;;;5048186;28;20491;-78
2023/10/04 00:43:51;;;;;;;17.88;8.23;;;15.90;96.90;;;;;;5056667;28;20058;-79
2023/10/04 00:46:21;;;;;;;15.15;9.63;;;15.60;97.80;;;;;;5047486;28;20414;-77
2023/10/04 00:49:09;;;;;;;20.95;9.48;;;15.80;97.80;;;;;;5090093;28;20528;-80
2023/10/04 00:51:40;;;;;;;22.85;9.77;;;15.60;98.10;;;;;;5065912;28;20429;-80
2023/10/04 00:54:11;;;;;;;25.63;9.63;;;15.70;97.80;;;;;;5055069;28;20090;-81
2023/10/04 00:56:40;;;;;;;21.13;9.50;;;15.50;98.20;;;;;;5072553;28;20784;-80
2023/10/04 00:59:10;;;;;;;25.42;9.70;;;15.50;98.30;;;;;;5068440;28;20040;-81
2023/10/04 01:01:40;;;;;;;15.63;8.63;;;15.70;98.40;;;;;;5054573;28;20103;-80
2023/10/04 01:04:10;;;;;;;16.55;9.18;;;15.80;98.10;;;;;;5055565;28;20089;-80
2023/10/04 01:06:41;;;;;;;23.27;9.25;;;15.80;98.20;;;;;;5055517;28;20044;-80
2023/10/04 01:09:14;;;;;;;19.80;8.77;;;15.60;98.60;;;;;;5055423;28;20036;-83
2023/10/04 01:12:24;;;;;;;18.02;9.13;;;15.50;99.20;;;;;;5056355;28;20047;-81
2023/10/04 01:15:03;;;;;;;21.20;9.75;;;15.40;99.90;;;;;;5035409;28;20059;-83
2023/10/04 01:17:35;;;;;;;16.10;9.38;;;15.30;99.90;;;;;;5071551;28;20052;-81
2023/10/04 01:20:28;;;;;;;18.50;8.68;;;15.20;99.90;;;;;;5070736;28;20043;-80
2023/10/04 01:23:09;;;;;;;18.60;9.60;;;15.20;99.90;;;;;;5070905;28;20052;-81
2023/10/04 01:25:46;;;;;;;15.73;9.13;;;15.20;99.90;;;;;;5054665;28;20035;-81
2023/10/04 01:28:41;;;;;;;16.33;9.63;;;15.20;99.90;;;;;;5042962;28;20040;-80
2023/10/04 01:31:15;;;;;;;15.95;8.88;;;15.20;99.90;;;;;;5054934;28;20036;-80
2023/10/04 01:33:43;;;;;;;18.42;9.88;;;15.30;99.90;;;;;;5052510;28;20048;-83
2023/10/04 01:36:25;;;;;;;15.90;10.55;;;15.40;99.90;;;;;;5055863;28;20050;-82
2023/10/04 01:39:30;;;;;;;19.10;9.80;;;15.10;99.90;;;;;;5041855;28;20068;-84
2023/10/04 01:42:30;;;;;;;14.32;9.07;;;15.30;99.90;;;;;;5026098;28;20041;-82
2023/10/04 01:45:15;;;;;;;16.77;9.80;;;15.10;99.90;;;;;;5012834;28;20037;-82
2023/10/04 01:48:04;;;;;;;17.95;9.52;;;14.90;99.90;;;;;;5033477;28;20049;-80
2023/10/04 01:50:52;;;;;;;18.85;9.02;;;14.90;99.90;;;;;;5029840;28;20053;-81
2023/10/04 01:53:53;;;;;;;16.15;9.32;;;14.90;99.90;;;;;;5037668;28;20068;-80
2023/10/04 01:56:22;;;;;;;16.70;10.05;;;14.80;99.90;;;;;;5022795;28;20092;-79
2023/10/04 01:59:07;;;;;;;19.23;9.13;;;14.70;99.90;;;;;;5037159;28;20059;-81
2023/10/04 02:01:44;;;;;;;18.98;9.57;;;14.70;99.90;;;;;;5040344;28;20175;-84
2023/10/04 02:04:52;;;;;;;15.32;8.18;;;14.80;99.90;;;;;;5060083;28;20047;-82
2023/10/04 02:07:26;;;;;;;16.80;9.63;;;14.70;99.90;;;;;;5026637;28;20041;-79
2023/10/04 02:10:03;;;;;;;18.17;9.30;;;14.60;99.90;;;;;;5043258;28;20047;-81
2023/10/04 02:12:33;;;;;;;14.80;9.95;;;14.60;99.90;;;;;;5026920;28;20512;-82
2023/10/04 02:15:20;;;;;;;13.73;9.05;;;14.50;99.90;;;;;;5056502;28;20426;-81
2023/10/04 02:18:28;;;;;;;17.67;8.95;;;14.40;99.90;;;;;;5062005;28;20063;-80
2023/10/04 02:21:40;;;;;;;19.42;8.68;;;14.50;99.90;;;;;;5079597;28;20117;-81
2023/10/04 02:24:23;;;;;;;19.85;9.68;;;14.40;99.90;;;;;;5059302;28;20052;-82
2023/10/04 02:27:06;;;;;;;14.68;8.85;;;14.40;99.90;;;;;;5044049;28;20818;-81
2023/10/04 02:29:39;;;;;;;15.80;9.70;;;14.50;99.90;;;;;;5075918;28;20055;-83
2023/10/04 02:32:09;;;;;;;14.15;9.75;;;14.70;99.90;;;;;;5057297;28;20048;-83
2023/10/04 02:34:53;;;;;;;16.80;9.18;;;14.70;99.90;;;;;;5071942;28;20125;-81
2023/10/04 02:37:27;;;;;;;13.80;9.05;;;14.50;99.90;;;;;;5071712;28;20130;-81
2023/10/04 02:39:57;;;;;;;;;;;14.50;99.90;;;;;;5075302;28;20048;-80
2023/10/04 02:42:47;;;;;;;16.23;9.95;;;14.50;99.90;;;;;;5074306;28;20027;-83
2023/10/04 02:45:38;;;;;;;16.25;8.95;;;14.70;99.90;;;;;;5060542;28;20044;-81
2023/10/04 02:48:10;;;;;;;13.20;9.32;;;14.30;99.90;;;;;;5092732;28;20067;-83
2023/10/04 02:50:54;;;;;;;14.50;8.63;;;14.20;99.90;;;;;;5068541;28;20090;-79
2023/10/04 02:53:27;;;;;;;13.50;7.97;;;14.10;99.90;;;;;;5051183;28;20457;-81
2023/10/04 02:55:57;;;;;;;14.98;8.35;;;14.30;99.90;;;;;;5058710;28;20059;-77
2023/10/04 02:58:26;;;;;;;18.02;8.77;;;14.20;99.90;;;;;;5056381;28;20143;-79
2023/10/04 03:00:57;;;;;;;16.20;7.63;;;14.30;99.90;;;;;;5058388;28;20059;-78
2023/10/04 03:03:26;;;;;;;12.05;8.10;;;14.20;99.90;;;;;;5052739;28;20119;-79
2023/10/04 03:06:04;;;;;;;18.08;8.00;;;14.30;99.90;;;;;;5049146;28;20045;-79
2023/10/04 03:08:33;;;;;;;15.57;7.68;;;14.40;99.90;;;;;;5054385;28;20055;-80
2023/10/04 03:11:03;;;;;;;17.73;8.38;;;14.40;99.90;;;;;;5051706;28;20506;-80
2023/10/04 03:13:32;;;;;;;17.23;8.43;;;14.50;99.90;;;;;;5057791;28;20040;-78
2023/10/04 03:16:01;;;;;;;16.52;9.18;;;14.30;99.90;;;;;;5055775;28;20049;-78
2023/10/04 03:18:31;;;;;;;21.90;9.13;;;14.20;99.90;;;;;;5057821;28;20089;-78
2023/10/04 03:21:30;;;;;;;13.05;9.43;;;14.10;99.90;;;;;;5092244;28;20048;-80
2023/10/04 03:24:06;;;;;;;20.42;10.35;;;14.10;99.90;;;;;;5068401;28;20036;-82
2023/10/04 03:27:43;;;;;;;18.63;9.18;;;14.10;99.90;;;;;;5063147;28;20116;-82
2023/10/04 03:31:16;;;;;;;17.73;10.27;;;14.20;99.90;;;;;;5091252;28;20799;-85
2023/10/04 03:35:14;;;;;;;16.20;9.57;;;14.40;99.90;;;;;;5064701;28;20096;-84
2023/10/04 03:38:53;;;;;;;17.75;9.50;;;14.50;99.90;;;;;;5068458;28;20075;-82
2023/10/04 03:42:11;;;;;;;14.80;10.00;;;14.40;99.90;;;;;;5031960;28;20068;-84
2023/10/04 03:49:46;;;;;;;19.88;10.48;;;14.40;99.90;;;;;;5045002;28;20054;-83
2023/10/04 03:52:16;;;;;;;22.15;10.77;;;14.00;99.90;;;;;;5033555;28;20041;-84
2023/10/04 03:55:25;;;;;;;22.58;11.13;;;13.90;99.90;;;;;;5039802;28;20049;-81
2023/10/04 03:58:23;;;;;;;19.00;12.38;;;13.80;99.90;;;;;;5053088;28;20033;-82
2023/10/04 04:01:20;;;;;;;18.73;11.48;;;13.80;99.90;;;;;;5060822;28;20474;-83
2023/10/04 04:04:37;;;;;;;20.73;11.25;;;14.00;99.90;;;;;;5054107;28;20043;-83
2023/10/04 04:08:04;;;;;;;19.08;10.38;;;14.00;99.90;;;;;;5061552;28;20041;-83
2023/10/04 04:11:08;;;;;;;16.13;9.27;;;14.00;99.90;;;;;;5052985;28;20112;-85
2023/10/04 04:14:23;;;;;;;16.50;10.20;;;14.00;99.90;;;;;;5041188;28;20067;-83
2023/10/04 04:16:51;;;;;;;18.98;9.80;;;14.00;99.90;;;;;;5033320;28;20488;-82
2023/10/04 04:19:22;;;;;;;16.88;9.68;;;13.90;99.90;;;;;;5058008;28;20072;-84
2023/10/04 04:21:49;;;;;;;16.42;9.23;;;13.80;99.90;;;;;;5068060;28;20033;-82
2023/10/04 04:24:19;;;;;;;17.13;9.27;;;13.80;99.90;;;;;;5053298;28;20032;-82
2023/10/04 04:26:48;;;;;;;15.93;9.65;;;13.80;99.90;;;;;;5049500;28;20558;-81
2023/10/04 04:29:17;;;;;;;14.07;8.77;;;13.90;99.90;;;;;;5062482;28;20037;-84
2023/10/04 04:31:47;;;;;;;14.60;8.90;;;13.90;99.90;;;;;;5035308;28;20039;-83
2023/10/04 04:35:07;;;;;;;15.40;9.05;;;14.00;99.90;;;;;;5038298;28;20048;-83
2023/10/04 04:37:36;;;;;;;14.82;9.13;;;14.00;99.90;;;;;;5058036;28;20507;-83
2023/10/04 04:40:09;;;;;;;14.32;9.23;;;13.70;99.90;;;;;;5064710;28;20067;-81
2023/10/04 04:43:34;;;;;;;13.90;7.75;;;13.60;99.90;;;;;;5060676;28;20036;-80
2023/10/04 04:46:06;;;;;;;12.45;9.00;;;13.80;99.90;;;;;;5058581;28;20032;-79
2023/10/04 04:48:37;;;;;;;15.80;8.82;;;14.00;99.90;;;;;;5053973;28;20041;-82
2023/10/04 04:51:10;;;;;;;15.95;9.50;;;13.90;99.90;;;;;;5073173;28;20028;-80
2023/10/04 04:53:42;;;;;;;15.95;8.77;;;13.70;99.90;;;;;;5071218;28;20499;-80
2023/10/04 04:56:16;;;;;;;17.02;8.98;;;13.80;99.90;;;;;;5055217;28;20037;-81
2023/10/04 04:58:49;;;;;;;14.60;8.63;;;13.70;99.90;;;;;;5065741;28;20403;-78
2023/10/04 05:01:16;;;;;;;16.27;8.68;;;13.70;99.90;;;;;;5062696;28;20521;-83
2023/10/04 05:03:50;;;;;;;15.77;8.57;;;13.80;99.90;;;;;;5090944;28;20462;-75
2023/10/04 05:06:25;;;;;;;75.68;41.33;;;13.80;99.90;;;;;;5087615;28;20036;-74
2023/10/04 05:08:57;;;;;;;63.00;36.88;;;13.80;99.90;;;;;;5086691;28;20487;-78
2023/10/04 05:11:24;;;;;;;151.57;97.32;;;14.10;99.90;;;;;;5084362;28;20114;-74
2023/10/04 05:13:56;;;;;;;100.13;60.95;;;14.20;99.90;;;;;;5065251;28;20554;-75
2023/10/04 05:16:25;;;;;;;130.00;76.63;;;14.40;99.90;;;;;;5061942;28;20044;-75
2023/10/04 05:18:53;;;;;;;33.58;20.88;;;14.50;99.90;;;;;;5083759;28;20388;-73
2023/10/04 05:21:21;;;;;;;194.25;99.70;;;14.40;99.90;;;;;;5082927;28;20515;-75
2023/10/04 05:23:49;;;;;;;187.55;105.32;;;14.20;99.90;;;;;;5088112;28;20063;-77
2023/10/04 05:26:16;;;;;;;68.72;41.30;;;14.40;99.90;;;;;;5069018;28;20161;-77
2023/10/04 05:28:44;;;;;;;32.83;18.58;;;14.50;99.90;;;;;;5066072;28;20040;-83
2023/10/04 05:31:12;;;;;;;23.55;13.00;;;14.40;99.90;;;;;;5054369;28;20047;-75
2023/10/04 05:33:42;;;;;;;25.60;11.50;;;14.20;99.90;;;;;;5054394;28;20122;-76
2023/10/04 05:36:12;;;;;;;19.23;11.48;;;14.30;99.90;;;;;;5046550;28;20044;-78
2023/10/04 05:38:39;;;;;;;26.50;12.98;;;14.40;99.90;;;;;;5048382;28;20060;-75
2023/10/04 05:41:09;;;;;;;18.73;11.52;;;14.60;99.90;;;;;;5050966;28;20040;-76
2023/10/04 05:43:37;;;;;;;19.58;10.15;;;14.70;99.90;;;;;;5051247;28;20053;-77
2023/10/04 05:46:06;;;;;;;21.10;10.57;;;14.50;99.90;;;;;;5055456;28;20574;-80
2023/10/04 05:48:37;;;;;;;19.48;10.35;;;14.20;99.90;;;;;;5053187;28;20044;-81
2023/10/04 05:51:24;;;;;;;23.75;10.40;;;14.20;99.90;;;;;;5053471;28;20040;-79
2023/10/04 05:53:52;;;;;;;16.52;9.75;;;14.40;99.90;;;;;;5041413;28;20377;-77
2023/10/04 05:56:21;;;;;;;20.92;11.13;;;14.60;99.90;;;;;;5061401;28;20052;-75
2023/10/04 05:58:49;;;;;;;17.25;9.57;;;14.70;99.90;;;;;;5050670;28;20040;-74
2023/10/04 06:01:17;;;;;;;21.13;10.80;;;14.60;99.90;;;;;;5054376;28;20145;-79
2023/10/04 06:03:47;;;;;;;33.35;12.32;;;14.80;99.90;;;;;;5052256;28;20457;-78
2023/10/04 06:06:19;;;;;;;32.55;12.43;;;15.20;99.90;;;;;;5055551;28;20048;-77
2023/10/04 06:08:52;;;;;;;24.33;11.30;;;15.40;99.90;;;;;;5052806;28;20097;-77
2023/10/04 06:11:23;;;;;;;25.83;10.23;;;15.50;99.90;;;;;;5055200;28;20048;-76
2023/10/04 06:13:51;;;;;;;27.90;11.45;;;16.20;99.90;;;;;;5070897;28;20064;-77
2023/10/04 06:16:19;;;;;;;21.05;10.25;;;15.80;99.90;;;;;;5054377;28;20044;-76
2023/10/04 06:18:51;;;;;;;20.75;10.98;;;15.70;99.90;;;;;;5054050;28;20093;-80
2023/10/04 06:21:19;;;;;;;19.98;9.70;;;15.80;99.90;;;;;;5067098;28;20611;-76
2023/10/04 06:23:48;;;;;;;19.50;10.95;;;15.60;99.90;;;;;;5054496;28;20050;-76
2023/10/04 06:26:16;;;;;;;18.50;10.82;;;15.40;99.90;;;;;;5054431;28;20086;-80
2023/10/04 06:28:46;;;;;;;20.52;10.95;;;15.30;99.90;;;;;;5069941;28;20483;-76
2023/10/04 06:31:13;;;;;;;18.17;9.70;;;15.20;99.90;;;;;;5068185;28;20040;-79
2023/10/04 06:33:42;;;;;;;19.88;11.68;;;15.30;99.90;;;;;;5051063;28;20067;-77
2023/10/04 06:36:10;;;;;;;19.85;10.98;;;15.20;99.90;;;;;;5067700;28;20044;-77
2023/10/04 06:38:39;;;;;;;24.98;12.40;;;14.90;99.90;;;;;;5050760;28;20445;-79
2023/10/04 06:41:23;;;;;;;23.08;10.63;;;15.20;99.90;;;;;;5055556;28;20040;-75
2023/10/04 06:43:52;;;;;;;18.15;10.25;;;15.50;99.90;;;;;;5056419;28;20036;-78
2023/10/04 06:46:21;;;;;;;17.25;9.88;;;15.50;99.90;;;;;;5071087;28;20395;-79
2023/10/04 06:48:51;;;;;;;18.83;10.15;;;15.60;99.90;;;;;;5070327;28;20044;-80
2023/10/04 06:51:20;;;;;;;23.70;10.75;;;15.80;99.90;;;;;;5070794;28;20047;-76
2023/10/04 06:53:49;;;;;;;17.65;9.95;;;15.80;99.90;;;;;;5070394;28;20071;-74
2023/10/04 06:56:16;;;;;;;19.80;9.85;;;15.70;99.90;;;;;;5057654;28;20048;-77
2023/10/04 06:58:46;;;;;;;23.08;11.05;;;15.90;99.90;;;;;;5092411;28;20056;-76
2023/10/04 07:01:16;;;;;;;17.30;10.07;;;15.90;99.90;;;;;;5057771;28;20165;-78
2023/10/04 07:03:47;;;;;;;20.63;10.32;;;16.00;99.90;;;;;;5074506;28;20109;-78
2023/10/04 07:06:17;;;;;;;19.55;10.55;;;16.10;99.90;;;;;;5056931;28;20032;-77
2023/10/04 07:08:48;;;;;;;16.88;10.38;;;16.20;99.90;;;;;;5057810;28;20071;-77
2023/10/04 07:11:17;;;;;;;20.45;10.68;;;16.30;99.90;;;;;;5056176;28;20047;-78
2023/10/04 07:13:44;;;;;;;17.48;10.35;;;16.40;99.90;;;;;;5056200;28;20052;-77
2023/10/04 07:16:14;;;;;;;19.90;10.55;;;16.50;99.90;;;;;;5054222;28;20400;-76
2023/10/04 07:18:49;;;;;;;18.33;10.18;;;16.50;99.90;;;;;;5057055;28;20507;-77
2023/10/04 07:21:20;;;;;;;16.85;10.27;;;16.50;99.90;;;;;;5066214;28;20044;-83
2023/10/04 07:23:51;;;;;;;;;;;16.70;99.90;;;;;;5073677;28;20155;-78
2023/10/04 07:26:24;;;;;;;20.75;10.35;;;16.60;99.90;;;;;;5085383;28;19920;-81
2023/10/04 07:29:02;;;;;;;19.35;10.52;;;16.50;99.90;;;;;;5071452;28;20028;-78
2023/10/04 07:31:36;;;;;;;18.55;11.25;;;16.60;99.90;;;;;;5055501;28;20047;-77
2023/10/04 07:34:07;;;;;;;21.27;10.18;;;16.90;99.90;;;;;;5085104;28;20052;-80
2023/10/04 07:36:38;;;;;;;21.63;10.02;;;17.10;99.80;;;;;;5036164;28;20044;-77
2023/10/04 07:39:08;;;;;;;23.95;11.48;;;16.90;99.70;;;;;;5051237;28;20436;-77
2023/10/04 07:41:37;;;;;;;20.10;10.85;;;16.80;99.90;;;;;;5054476;28;20074;-78
2023/10/04 07:44:11;;;;;;;17.17;10.30;;;16.90;99.70;;;;;;5051261;28;20048;-75
2023/10/04 07:46:42;;;;;;;21.58;11.13;;;17.20;99.10;;;;;;5067826;28;20377;-79
2023/10/04 07:49:10;;;;;;;21.02;11.00;;;17.40;99.00;;;;;;5084897;28;20036;-82
2023/10/04 07:51:40;;;;;;;23.05;12.20;;;17.70;98.40;;;;;;5069199;28;20032;-78
2023/10/04 07:54:07;;;;;;;22.92;12.32;;;17.80;98.00;;;;;;5088020;28;20047;-80
2023/10/04 07:56:35;;;;;;;19.70;10.90;;;17.50;98.20;;;;;;5089803;28;20044;-80
2023/10/04 07:59:02;;;;;;;17.35;11.27;;;17.60;98.30;;;;;;5069151;28;20377;-82
2023/10/04 08:01:31;;;;;;;20.15;9.93;;;17.80;98.10;;;;;;5070969;28;20048;-81
2023/10/04 08:04:33;;;;;;;;;;;18.00;98.00;;;;;;5069983;28;20060;-79
2023/10/04 08:07:12;;;;;;;17.55;10.35;;;18.40;97.10;;;;;;5055282;28;19931;-78
2023/10/04 08:09:48;;;;;;;19.63;10.27;;;18.40;96.90;;;;;;5058590;28;20040;-80
2023/10/04 08:12:26;;;;;;;19.85;10.95;;;18.80;96.20;;;;;;5055822;28;20060;-77
2023/10/04 08:14:58;;;;;;;15.57;10.52;;;18.70;96.00;;;;;;5044191;28;20036;-77
2023/10/04 08:17:33;;;;;;;18.85;9.73;;;18.50;96.40;;;;;;5060009;28;20056;-78
2023/10/04 08:20:54;;;;;;;18.92;11.07;;;18.80;96.50;;;;;;5069179;28;20543;-80
2023/10/04 08:24:03;;;;;;;20.10;10.50;;;18.90;96.10;;;;;;5073908;28;20044;-79
2023/10/04 08:27:26;;;;;;;23.45;9.60;;;19.30;95.80;;;;;;5088637;28;20087;-79
2023/10/04 08:30:51;;;;;;;17.27;9.93;;;19.50;94.80;;;;;;5057498;28;20174;-79
2023/10/04 08:33:33;;;;;;;17.70;9.82;;;19.90;94.40;;;;;;5046441;28;20541;-78
2023/10/04 08:36:17;;;;;;;22.15;11.25;;;20.10;93.50;;;;;;5061337;28;20193;-79
2023/10/04 08:38:46;;;;;;;18.63;10.75;;;20.00;93.40;;;;;;5049341;28;20137;-78
2023/10/04 08:41:18;;;;;;;15.63;9.43;;;20.00;93.10;;;;;;5053059;28;20036;-76
2023/10/04 08:43:47;;;;;;;21.52;10.70;;;20.10;93.20;;;;;;5052865;28;20682;-79
2023/10/04 08:46:19;;;;;;;22.50;10.38;;;20.30;93.00;;;;;;5048639;28;20734;-79
2023/10/04 08:48:53;;;;;;;18.05;10.02;;;20.60;92.30;;;;;;5039374;28;20094;-77
2023/10/04 08:52:00;;;;;;;23.25;10.68;;;20.80;91.90;;;;;;5052518;28;20090;-80
2023/10/04 08:54:39;;;;;;;15.50;9.68;;;20.80;91.70;;;;;;5050645;28;20438;-78
2023/10/04 08:57:14;;;;;;;17.27;9.98;;;21.10;91.20;;;;;;5050309;28;20040;-81
2023/10/04 08:59:51;;;;;;;16.00;9.27;;;21.00;91.50;;;;;;5067631;28;20036;-80
2023/10/04 09:02:36;;;;;;;19.20;10.20;;;21.20;90.90;;;;;;5058747;28;20044;-79
2023/10/04 09:05:23;;;;;;;18.83;9.80;;;21.50;90.60;;;;;;5058586;28;20411;-83
2023/10/04 09:07:51;;;;;;;18.85;11.02;;;21.70;90.10;;;;;;5070441;28;20050;-80
2023/10/04 09:10:24;;;;;;;17.08;10.68;;;21.60;88.50;;;;;;5069672;28;20127;-78
2023/10/04 09:12:52;;;;;;;17.80;10.68;;;21.50;88.90;;;;;;5054569;28;20147;-80
2023/10/04 09:15:37;;;;;;;18.73;9.35;;;21.50;88.20;;;;;;5051674;28;20507;-82
2023/10/04 09:18:34;;;;;;;18.83;10.02;;;21.70;88.40;;;;;;5073037;28;20101;-85
2023/10/04 09:21:17;;;;;;;20.38;10.35;;;21.70;87.00;;;;;;5058260;28;20419;-81
2023/10/04 09:24:09;;;;;;;18.20;9.90;;;21.90;85.80;;;;;;5054016;28;20067;-77
2023/10/04 09:26:54;;;;;;;24.10;8.95;;;21.60;85.00;;;;;;5040841;28;20047;-84
2023/10/04 09:29:36;;;;;;;19.23;9.80;;;21.90;85.50;;;;;;5052427;28;20050;-79
2023/10/04 09:32:38;;;;;;;16.15;9.80;;;22.00;84.10;;;;;;5043223;28;20135;-80
2023/10/04 09:35:18;;;;;;;18.65;9.18;;;21.80;84.50;;;;;;5052827;28;20060;-83
2023/10/04 09:38:36;;;;;;;24.20;8.88;;;21.70;84.30;;;;;;5035366;28;20401;-82
2023/10/04 09:41:04;;;;;;;16.48;8.80;;;21.90;84.10;;;;;;5040432;28;20054;-80
2023/10/04 09:43:37;;;;;;;15.73;9.25;;;22.10;83.20;;;;;;5061245;28;20147;-78
2023/10/04 09:46:12;;;;;;;16.23;9.05;;;22.40;82.30;;;;;;5065379;28;20404;-78
2023/10/04 09:48:43;;;;;;;16.85;9.93;;;22.20;82.60;;;;;;5052443;28;20139;-78
2023/10/04 09:51:16;;;;;;;19.15;9.40;;;22.40;82.10;;;;;;5085012;28;20101;-78
2023/10/04 09:53:58;;;;;;;17.08;9.00;;;22.40;81.40;;;;;;5052568;28;20126;-80
2023/10/04 09:56:44;;;;;;;18.20;8.73;;;22.20;82.20;;;;;;5056351;28;20356;-80
2023/10/04 09:59:23;;;;;;;18.92;9.35;;;22.60;82.00;;;;;;5053711;28;20058;-79
2023/10/04 10:02:01;;;;;;;18.33;9.27;;;23.00;80.10;;;;;;5064838;28;20494;-79
2023/10/04 10:04:38;;;;;;;19.77;9.88;;;23.40;79.90;;;;;;5051551;28;20040;-79
2023/10/04 10:07:16;;;;;;;19.08;8.60;;;23.80;79.40;;;;;;5071533;28;20047;-81
2023/10/04 10:10:10;;;;;;;15.65;8.85;;;23.90;78.00;;;;;;5088076;28;20075;-82
2023/10/04 10:12:53;;;;;;;17.88;8.27;;;24.00;77.10;;;;;;5054273;28;20043;-81
2023/10/04 10:15:21;;;;;;;16.88;8.75;;;24.10;76.70;;;;;;5057222;28;20066;-79
2023/10/04 10:17:49;;;;;;;21.33;10.27;;;24.20;77.00;;;;;;5057055;28;20028;-78
2023/10/04 10:20:31;;;;;;;17.75;9.20;;;24.30;76.20;;;;;;5073144;28;20051;-79
2023/10/04 10:26:27;;;;;;;15.23;8.77;;;24.30;75.20;;;;;;5070778;28;20059;-78
2023/10/04 10:29:21;;;;;;;15.63;8.52;;;24.60;74.20;;;;;;5058997;28;20048;-79
2023/10/04 10:32:00;;;;;;;20.98;9.50;;;24.90;73.00;;;;;;5041240;28;20048;-79
2023/10/04 10:34:28;;;;;;;21.63;8.55;;;24.60;73.40;;;;;;5088913;28;20040;-78
2023/10/04 10:37:19;;;;;;;15.57;9.20;;;24.70;73.10;;;;;;5074359;28;20052;-79
2023/10/04 10:39:55;;;;;;;16.02;8.48;;;25.00;72.30;;;;;;5075530;28;20071;-78
2023/10/04 10:42:26;;;;;;;17.10;8.65;;;25.20;71.80;;;;;;5069947;28;20454;-78
2023/10/04 10:45:26;;;;;;;15.68;7.75;;;25.30;71.20;;;;;;5054956;28;20040;-78
2023/10/04 10:47:56;;;;;;;18.33;7.53;;;25.50;70.50;;;;;;5054697;28;20054;-80
2023/10/04 10:50:48;;;;;;;15.43;7.57;;;25.60;70.00;;;;;;5062423;28;20092;-79
2023/10/04 10:53:16;;;;;;;17.88;8.27;;;25.70;69.30;;;;;;5057645;28;20117;-80
2023/10/04 10:55:44;;;;;;;14.90;7.78;;;25.80;69.20;;;;;;5056370;28;20111;-80
2023/10/04 10:58:18;;;;;;;14.63;8.20;;;26.10;69.20;;;;;;5054862;28;20060;-79
2023/10/04 11:00:49;;;;;;;13.55;8.18;;;26.20;68.40;;;;;;5040587;28;20040;-79
2023/10/04 11:03:19;;;;;;;19.08;9.27;;;26.40;67.90;;;;;;5055496;28;20437;-83
2023/10/04 11:05:47;;;;;;;17.73;8.05;;;26.50;67.50;;;;;;5092109;28;20042;-83
2023/10/04 11:08:15;;;;;;;17.20;8.02;;;26.60;66.80;;;;;;5074804;28;20047;-82
2023/10/04 11:10:43;;;;;;;14.55;7.93;;;26.60;66.10;;;;;;5075049;28;20123;-80
2023/10/04 11:13:17;;;;;;;14.98;8.25;;;26.80;66.00;;;;;;5057221;28;20089;-78
2023/10/04 11:15:46;;;;;;;14.88;8.38;;;27.10;65.40;;;;;;5060788;28;20083;-81
2023/10/04 11:18:17;;;;;;;14.18;8.02;;;27.30;65.30;;;;;;5062244;28;20039;-79
2023/10/04 11:21:01;;;;;;;14.55;8.57;;;27.40;64.90;;;;;;5061364;28;20036;-78
2023/10/04 11:23:48;;;;;;;15.82;9.27;;;27.80;64.40;;;;;;5079394;28;20054;-81
2023/10/04 11:26:30;;;;;;;14.38;8.20;;;30.20;61.80;;;;;;5060742;28;20046;-81
2023/10/04 11:29:02;;;;;;;16.42;8.25;;;32.60;57.40;;;;;;5073638;28;20135;-78
2023/10/04 11:31:49;;;;;;;16.98;8.23;;;33.80;54.30;;;;;;5027998;28;20404;-80
2023/10/04 11:34:19;;;;;;;15.23;8.13;;;33.50;53.10;;;;;;5093162;28;20036;-78
2023/10/04 11:37:05;;;;;;;18.88;8.35;;;33.70;52.40;;;;;;5046403;28;20032;-81
2023/10/04 11:39:39;;;;;;;15.55;7.57;;;33.90;51.70;;;;;;5058200;28;20056;-80
2023/10/04 11:42:24;;;;;;;10.68;6.38;;;32.50;52.50;;;;;;5072118;28;20096;-81
2023/10/04 11:45:17;;;;;;;12.95;7.70;;;30.00;55.70;;;;;;5077753;28;20543;-83
2023/10/04 11:47:59;;;;;;;18.33;7.78;;;28.80;56.80;;;;;;5092749;28;20544;-79
2023/10/04 11:50:45;;;;;;;12.60;6.75;;;28.50;57.70;;;;;;5074280;28;20293;-82
2023/10/04 11:53:33;;;;;;;11.73;6.82;;;28.50;57.90;;;;;;5072973;28;20032;-82
2023/10/04 11:56:10;;;;;;;12.07;7.20;;;28.70;58.00;;;;;;5055023;28;20081;-83
2023/10/04 11:58:49;;;;;;;14.55;6.55;;;28.60;58.30;;;;;;5072193;28;20547;-80
2023/10/04 12:01:23;;;;;;;;;;;28.30;57.50;;;;;;5074627;28;20379;-80
2023/10/04 12:03:55;;;;;;;14.48;6.78;;;28.10;57.60;;;;;;5069985;28;19924;-80
2023/10/04 12:06:34;;;;;;;11.25;6.30;;;28.20;56.90;;;;;;5051990;28;20041;-77
2023/10/04 12:09:13;;;;;;;11.45;6.07;;;28.30;57.40;;;;;;5056214;28;20040;-78
2023/10/04 12:11:43;;;;;;;11.40;6.57;;;28.60;56.90;;;;;;5073343;28;20040;-79
2023/10/04 12:14:13;;;;;;;15.57;6.38;;;28.10;56.50;;;;;;5073440;28;20052;-79
2023/10/04 12:16:45;;;;;;;13.15;6.65;;;28.10;57.90;;;;;;5061492;28;20036;-77
2023/10/04 12:19:13;;;;;;;15.50;7.07;;;27.40;57.70;;;;;;5072679;28;20043;-79
2023/10/04 12:21:41;;;;;;;19.42;8.43;;;27.50;57.90;;;;;;5056441;28;20097;-77
2023/10/04 12:24:09;;;;;;;12.50;6.80;;;27.70;57.10;;;;;;5055900;28;20455;-79
2023/10/04 12:26:37;;;;;;;13.98;6.28;;;28.20;57.30;;;;;;5056307;28;20043;-78
2023/10/04 12:29:07;;;;;;;10.37;5.47;;;28.90;56.60;;;;;;5037692;28;20044;-79
2023/10/04 12:31:36;;;;;;;12.05;6.63;;;29.00;55.40;;;;;;5055697;28;20472;-81
2023/10/04 12:34:11;;;;;;;11.93;6.63;;;29.00;56.10;;;;;;5071147;28;20093;-79
2023/10/04 12:36:40;;;;;;;14.70;6.65;;;29.50;55.90;;;;;;5054715;28;20050;-82
2023/10/04 12:39:24;;;;;;;12.73;6.18;;;29.80;55.10;;;;;;5057719;28;20194;-81
2023/10/04 12:41:52;;;;;;;11.87;7.17;;;29.40;55.00;;;;;;5055767;28;20071;-79
2023/10/04 12:44:23;;;;;;;17.30;6.85;;;29.80;55.20;;;;;;5056381;28;20032;-82
2023/10/04 12:46:53;;;;;;;11.55;5.50;;;29.90;54.00;;;;;;5073633;28;20476;-78
2023/10/04 12:49:28;;;;;;;10.73;6.43;;;29.00;55.50;;;;;;5086754;28;20066;-80
2023/10/04 12:51:56;;;;;;;12.50;6.20;;;29.40;55.10;;;;;;5040763;28;20047;-79
2023/10/04 12:54:25;;;;;;;11.35;6.15;;;29.20;55.00;;;;;;5056049;28;20047;-79
2023/10/04 12:57:02;;;;;;;24.25;7.07;;;29.10;54.60;;;;;;5056971;28;20140;-79
2023/10/04 12:59:33;;;;;;;12.57;5.90;;;29.70;54.70;;;;;;5057654;28;20098;-77
2023/10/04 13:02:07;;;;;;;9.95;5.50;;;30.40;54.20;;;;;;5057140;28;20387;-78
2023/10/04 13:04:35;;;;;;;11.30;5.72;;;29.90;53.20;;;;;;5054946;28;20238;-79
2023/10/04 13:07:05;;;;;;;11.38;6.50;;;29.70;54.50;;;;;;5052538;28;20049;-79
2023/10/04 13:09:32;;;;;;;15.95;5.90;;;30.30;53.90;;;;;;5054549;28;20048;-78
2023/10/04 13:12:22;;;;;;;11.57;5.65;;;29.90;53.70;;;;;;5058081;28;20138;-78
2023/10/04 13:14:50;;;;;;;13.95;5.57;;;30.30;53.70;;;;;;5055672;28;20682;-80
2023/10/04 13:17:22;;;;;;;13.77;5.55;;;30.60;52.30;;;;;;5071595;28;20085;-78
2023/10/04 13:19:53;;;;;;;10.80;6.50;;;30.80;53.00;;;;;;5055654;28;20135;-79
2023/10/04 13:22:23;;;;;;;11.02;5.43;;;31.00;52.30;;;;;;5055175;28;20093;-80
2023/10/04 13:24:52;;;;;;;11.57;5.70;;;30.50;52.20;;;;;;5072280;28;20105;-79
2023/10/04 13:27:26;;;;;;;10.15;5.72;;;30.00;52.50;;;;;;5054494;28;20062;-79
2023/10/04 13:29:53;;;;;;;10.57;5.45;;;29.50;52.90;;;;;;5055660;28;20570;-78
2023/10/04 13:32:21;;;;;;;14.38;5.50;;;29.60;53.00;;;;;;5054042;28;20458;-79
2023/10/04 13:34:51;;;;;;;12.50;5.63;;;29.90;53.40;;;;;;5069098;28;20515;-81
2023/10/04 13:37:36;;;;;;;14.85;6.05;;;31.50;52.30;;;;;;5022197;28;21416;-78